createdAt,value
2023-05-09T00:00:25.286Z,14.40
2023-05-09T00:01:25.268Z,13.10
2023-05-09T00:02:25.367Z,15.10
2023-05-09T00:03:25.254Z,13.20
2023-05-09T00:04:25.352Z,15.10
2023-05-09T00:05:25.240Z,14.30
2023-05-09T00:06:25.208Z,13.20
2023-05-09T00:07:25.183Z,15.40
2023-05-09T00:08:25.178Z,13.00
2023-05-09T00:09:25.180Z,13.50
2023-05-09T00:10:25.175Z,15.20
2023-05-09T00:11:25.156Z,13.00
2023-05-09T00:12:25.129Z,16.20
2023-05-09T00:13:25.154Z,12.70
2023-05-09T00:14:25.139Z,13.70
2023-05-09T00:15:25.080Z,13.70
2023-05-09T00:16:25.098Z,13.90
2023-05-09T00:17:25.147Z,14.60
2023-05-09T00:18:25.049Z,14.50
2023-05-09T00:19:25.042Z,13.00
2023-05-09T00:20:25.063Z,12.90
2023-05-09T00:21:25.013Z,13.50
2023-05-09T00:22:24.990Z,14.00
2023-05-09T00:23:24.975Z,13.80
2023-05-09T00:24:24.982Z,13.40
2023-05-09T00:25:24.964Z,13.60
2023-05-09T00:26:24.944Z,13.90
2023-05-09T00:27:24.943Z,13.70
2023-05-09T00:28:24.914Z,14.90
2023-05-09T00:29:24.900Z,12.50
2023-05-09T00:30:24.898Z,13.10
2023-05-09T00:31:24.890Z,15.60
2023-05-09T00:32:24.888Z,14.00
2023-05-09T00:33:24.854Z,13.00
2023-05-09T00:34:24.837Z,15.40
2023-05-09T00:35:24.825Z,13.70
2023-05-09T00:36:24.814Z,13.20
2023-05-09T00:37:24.812Z,13.60
2023-05-09T00:38:24.780Z,13.80
2023-05-09T00:39:24.780Z,15.40
2023-05-09T00:40:24.853Z,12.80
2023-05-09T00:41:24.741Z,13.30
2023-05-09T00:42:24.720Z,12.40
2023-05-09T00:43:24.712Z,12.60
2023-05-09T00:44:24.719Z,15.20
2023-05-09T00:45:24.694Z,12.40
2023-05-09T00:46:24.720Z,13.10
2023-05-09T00:47:24.710Z,13.00
2023-05-09T00:48:24.649Z,14.00
2023-05-09T00:49:24.642Z,14.00
2023-05-09T00:50:24.640Z,14.50
2023-05-09T00:51:24.604Z,15.00
2023-05-09T00:52:24.587Z,12.30
2023-05-09T00:53:24.598Z,13.30
2023-05-09T00:54:24.571Z,15.30
2023-05-09T00:55:24.570Z,13.70
2023-05-09T00:56:24.548Z,13.70
2023-05-09T00:57:24.533Z,13.60
2023-05-09T00:58:24.525Z,14.10
2023-05-09T00:59:24.508Z,12.50
2023-05-09T01:00:24.502Z,13.30
2023-05-09T01:01:24.526Z,13.00
2023-05-09T01:02:24.557Z,13.40
2023-05-09T01:03:24.590Z,14.50
2023-05-09T01:04:24.457Z,14.30
2023-05-09T01:05:24.430Z,13.40
2023-05-09T01:06:24.461Z,12.70
2023-05-09T01:07:24.385Z,13.80
2023-05-09T01:08:24.445Z,11.90
2023-05-09T01:09:24.373Z,15.40
2023-05-09T01:10:24.371Z,13.00
2023-05-09T01:11:24.339Z,13.30
2023-05-09T01:12:24.330Z,12.90
2023-05-09T01:13:24.368Z,15.00
2023-05-09T01:14:24.303Z,13.20
2023-05-09T01:15:24.292Z,14.80
2023-05-09T01:16:24.338Z,13.00
2023-05-09T01:17:24.260Z,12.40
2023-05-09T01:18:24.256Z,15.10
2023-05-09T01:19:24.251Z,14.00
2023-05-09T01:20:24.228Z,14.40
2023-05-09T01:21:24.228Z,14.10
2023-05-09T01:22:24.200Z,13.40
2023-05-09T01:23:24.192Z,13.80
2023-05-09T01:24:24.197Z,12.90
2023-05-09T01:25:24.189Z,13.00
2023-05-09T01:26:24.194Z,13.10
2023-05-09T01:27:24.132Z,13.00
2023-05-09T01:28:24.129Z,13.90
2023-05-09T01:29:24.094Z,13.50
2023-05-09T01:30:24.083Z,15.40
2023-05-09T01:31:24.082Z,15.50
2023-05-09T01:32:24.115Z,14.60
2023-05-09T01:33:24.052Z,15.40
2023-05-09T01:34:24.037Z,13.80
2023-05-09T01:35:24.034Z,14.10
2023-05-09T01:36:24.025Z,14.10
2023-05-09T01:37:23.997Z,12.90
2023-05-09T01:38:24.008Z,14.80
2023-05-09T01:39:23.988Z,14.90
2023-05-09T01:40:23.981Z,14.60
2023-05-09T01:41:23.950Z,13.30
2023-05-09T01:42:23.937Z,15.70
2023-05-09T01:43:23.927Z,13.70
2023-05-09T01:44:23.900Z,14.90
2023-05-09T01:45:23.896Z,14.60
2023-05-09T01:46:23.905Z,13.50
2023-05-09T01:47:23.878Z,14.90
2023-05-09T01:48:23.868Z,14.50
2023-05-09T01:49:23.840Z,13.50
2023-05-09T01:50:23.829Z,13.10
2023-05-09T01:51:23.823Z,15.40
2023-05-09T01:52:23.832Z,17.30
2023-05-09T01:53:23.781Z,12.90
2023-05-09T01:54:23.771Z,14.20
2023-05-09T01:55:23.791Z,15.20
2023-05-09T01:56:23.786Z,15.30
2023-05-09T01:57:23.724Z,14.80
2023-05-09T01:58:23.714Z,13.90
2023-05-09T01:59:23.730Z,15.90
2023-05-09T02:00:23.694Z,16.30
2023-05-09T02:01:23.965Z,15.00
2023-05-09T02:02:23.702Z,15.10
2023-05-09T02:03:23.657Z,15.60
2023-05-09T02:04:23.630Z,13.70
2023-05-09T02:05:23.656Z,14.80
2023-05-09T02:06:23.659Z,12.80
2023-05-09T02:07:23.585Z,13.20
2023-05-09T02:08:23.599Z,16.00
2023-05-09T02:09:23.580Z,14.70
2023-05-09T02:10:23.551Z,14.70
2023-05-09T02:11:23.541Z,13.60
2023-05-09T02:12:23.545Z,17.10
2023-05-09T02:13:23.662Z,13.70
2023-05-09T02:14:23.537Z,13.50
2023-05-09T02:15:23.486Z,14.60
2023-05-09T02:16:23.504Z,14.40
2023-05-09T02:17:23.507Z,13.70
2023-05-09T02:18:23.465Z,16.60
2023-05-09T02:19:23.431Z,13.90
2023-05-09T02:20:23.454Z,15.00
2023-05-09T02:21:23.424Z,14.50
2023-05-09T02:22:23.385Z,15.10
2023-05-09T02:23:23.375Z,14.20
2023-05-09T02:24:23.365Z,13.00
2023-05-09T02:25:23.376Z,13.40
2023-05-09T02:26:23.350Z,13.70
2023-05-09T02:27:23.353Z,14.10
2023-05-09T02:28:23.314Z,14.10
2023-05-09T02:29:23.302Z,14.70
2023-05-09T02:30:23.307Z,15.00
2023-05-09T02:31:23.318Z,14.50
2023-05-09T02:32:23.256Z,12.70
2023-05-09T02:33:23.238Z,15.60
2023-05-09T02:34:23.219Z,15.20
2023-05-09T02:35:23.208Z,13.70
2023-05-09T02:36:23.212Z,13.20
2023-05-09T02:37:23.192Z,14.10
2023-05-09T02:38:23.171Z,14.30
2023-05-09T02:39:23.163Z,16.40
2023-05-09T02:40:23.167Z,13.60
2023-05-09T02:41:23.142Z,16.80
2023-05-09T02:42:23.122Z,13.60
2023-05-09T02:43:23.126Z,13.10
2023-05-09T02:44:23.088Z,15.40
2023-05-09T02:45:23.091Z,13.50
2023-05-09T02:46:23.105Z,13.00
2023-05-09T02:47:23.069Z,12.70
2023-05-09T02:48:23.037Z,13.30
2023-05-09T02:49:31.963Z,13.50
2023-05-09T02:50:23.006Z,11.80
2023-05-09T02:51:22.996Z,13.90
2023-05-09T02:52:23.004Z,13.50
2023-05-09T02:53:22.978Z,14.60
2023-05-09T02:54:22.953Z,14.60
2023-05-09T02:55:22.949Z,12.40
2023-05-09T02:56:22.937Z,13.40
2023-05-09T02:57:22.942Z,13.90
2023-05-09T02:58:22.932Z,13.70
2023-05-09T02:59:22.893Z,15.10
2023-05-09T03:00:22.860Z,13.00
2023-05-09T03:01:22.993Z,12.70
2023-05-09T03:02:22.896Z,14.10
2023-05-09T03:03:22.902Z,13.10
2023-05-09T03:04:22.807Z,13.90
2023-05-09T03:05:22.823Z,14.20
2023-05-09T03:06:22.797Z,15.00
2023-05-09T03:07:22.779Z,13.40
2023-05-09T03:08:22.783Z,14.80
2023-05-09T03:09:22.747Z,17.00
2023-05-09T03:10:22.722Z,14.40
2023-05-09T03:11:22.719Z,15.10
2023-05-09T03:12:22.714Z,16.80
2023-05-09T03:13:22.737Z,17.10
2023-05-09T03:14:22.668Z,17.00
2023-05-09T03:15:22.668Z,14.20
2023-05-09T03:16:22.771Z,14.20
2023-05-09T03:17:22.633Z,14.10
2023-05-09T03:18:22.620Z,13.90
2023-05-09T03:19:22.607Z,13.80
2023-05-09T03:20:22.595Z,15.60
2023-05-09T03:21:22.619Z,14.80
2023-05-09T03:22:22.568Z,15.50
2023-05-09T03:23:22.542Z,15.20
2023-05-09T03:24:22.524Z,12.50
2023-05-09T03:25:22.587Z,13.60
2023-05-09T03:26:22.498Z,14.00
2023-05-09T03:27:22.513Z,14.10
2023-05-09T03:28:22.478Z,15.60
2023-05-09T03:29:22.462Z,14.20
2023-05-09T03:30:22.457Z,13.10
2023-05-09T03:31:22.529Z,12.50
2023-05-09T03:32:22.477Z,13.40
2023-05-09T03:33:22.406Z,13.10
2023-05-09T03:34:22.399Z,14.20
2023-05-09T03:35:22.381Z,15.00
2023-05-09T03:36:22.367Z,16.30
2023-05-09T03:37:22.369Z,13.30
2023-05-09T03:38:22.332Z,12.90
2023-05-09T03:39:22.327Z,14.80
2023-05-09T03:40:22.315Z,17.50
2023-05-09T03:41:22.327Z,14.50
2023-05-09T03:42:22.308Z,15.00
2023-05-09T03:43:22.272Z,14.10
2023-05-09T03:44:22.259Z,12.90
2023-05-09T03:45:22.254Z,15.90
2023-05-09T03:46:22.306Z,15.30
2023-05-09T03:47:22.222Z,13.70
2023-05-09T03:48:22.224Z,14.10
2023-05-09T03:49:22.205Z,14.70
2023-05-09T03:50:22.177Z,14.70
2023-05-09T03:51:22.174Z,15.40
2023-05-09T03:52:22.163Z,14.00
2023-05-09T03:53:22.147Z,13.80
2023-05-09T03:54:22.122Z,13.10
2023-05-09T03:55:22.125Z,15.90
2023-05-09T03:56:22.103Z,14.20
2023-05-09T03:57:22.072Z,14.50
2023-05-09T03:58:22.074Z,13.50
2023-05-09T03:59:22.680Z,13.60
2023-05-09T04:00:22.038Z,15.10
2023-05-09T04:01:22.072Z,16.40
2023-05-09T04:02:22.142Z,13.60
2023-05-09T04:03:22.124Z,16.90
2023-05-09T04:04:21.978Z,15.30
2023-05-09T04:05:21.985Z,14.50
2023-05-09T04:06:21.944Z,15.90
2023-05-09T04:07:21.943Z,14.90
2023-05-09T04:08:21.951Z,14.80
2023-05-09T04:09:21.923Z,15.40
2023-05-09T04:10:21.907Z,15.80
2023-05-09T04:11:21.883Z,13.90
2023-05-09T04:12:21.885Z,15.40
2023-05-09T04:13:21.949Z,16.00
2023-05-09T04:14:21.838Z,15.10
2023-05-09T04:15:21.846Z,14.30
2023-05-09T04:16:21.858Z,15.80
2023-05-09T04:17:21.849Z,13.70
2023-05-09T04:18:21.820Z,16.50
2023-05-09T04:19:21.775Z,14.70
2023-05-09T04:20:21.754Z,14.10
2023-05-09T04:21:21.761Z,13.70
2023-05-09T04:22:21.725Z,13.50
2023-05-09T04:23:21.724Z,13.90
2023-05-09T04:24:21.693Z,13.90
2023-05-09T04:25:21.708Z,17.30
2023-05-09T04:26:21.682Z,29.60
2023-05-09T04:27:21.667Z,20.00
2023-05-09T04:28:21.680Z,19.80
2023-05-09T04:29:21.675Z,23.30
2023-05-09T04:30:21.635Z,21.40
2023-05-09T04:31:21.698Z,18.60
2023-05-09T04:32:21.609Z,16.10
2023-05-09T04:33:21.602Z,16.50
2023-05-09T04:34:21.569Z,15.60
2023-05-09T04:35:21.868Z,16.00
2023-05-09T04:36:21.544Z,15.40
2023-05-09T04:37:21.541Z,16.10
2023-05-09T04:38:21.518Z,13.60
2023-05-09T04:39:21.494Z,14.60
2023-05-09T04:40:21.495Z,15.00
2023-05-09T04:41:21.491Z,14.90
2023-05-09T04:42:21.450Z,17.70
2023-05-09T04:43:21.449Z,14.40
2023-05-09T04:44:21.461Z,15.80
2023-05-09T04:45:21.419Z,15.90
2023-05-09T04:46:23.100Z,13.60
2023-05-09T04:47:21.386Z,15.30
2023-05-09T04:48:21.388Z,13.70
2023-05-09T04:49:21.378Z,13.40
2023-05-09T04:50:21.351Z,14.50
2023-05-09T04:51:21.340Z,13.80
2023-05-09T04:52:21.325Z,13.20
2023-05-09T04:53:21.339Z,14.30
2023-05-09T04:54:21.328Z,12.90
2023-05-09T04:55:21.287Z,13.20
2023-05-09T04:56:21.305Z,14.80
2023-05-09T04:57:21.277Z,16.80
2023-05-09T04:58:21.281Z,13.60
2023-05-09T04:59:21.261Z,12.40
2023-05-09T05:00:21.239Z,13.70
2023-05-09T05:01:21.231Z,15.30
2023-05-09T05:02:21.231Z,15.00
2023-05-09T05:03:21.178Z,13.60
2023-05-09T05:04:21.223Z,13.20
2023-05-09T05:05:25.146Z,13.30
2023-05-09T05:06:21.137Z,13.50
2023-05-09T05:07:21.109Z,13.40
2023-05-09T05:08:21.100Z,13.30
2023-05-09T05:09:21.095Z,15.20
2023-05-09T05:10:21.090Z,13.20
2023-05-09T05:11:21.053Z,12.70
2023-05-09T05:12:21.041Z,15.00
2023-05-09T05:13:21.167Z,13.20
2023-05-09T05:14:21.023Z,13.60
2023-05-09T05:15:20.998Z,11.80
2023-05-09T05:16:21.024Z,13.20
2023-05-09T05:17:20.983Z,12.90
2023-05-09T05:18:20.961Z,13.60
2023-05-09T05:19:20.982Z,15.90
2023-05-09T05:20:20.939Z,15.60
2023-05-09T05:21:20.927Z,14.50
2023-05-09T05:22:20.912Z,13.90
2023-05-09T05:23:20.965Z,15.20
2023-05-09T05:24:20.883Z,15.40
2023-05-09T05:25:20.861Z,12.90
2023-05-09T05:26:20.867Z,12.50
2023-05-09T05:27:20.989Z,16.70
2023-05-09T05:28:20.815Z,13.60
2023-05-09T05:29:20.866Z,13.90
2023-05-09T05:30:20.789Z,12.60
2023-05-09T05:31:20.804Z,15.60
2023-05-09T05:32:20.762Z,15.50
2023-05-09T05:33:20.767Z,13.40
2023-05-09T05:34:20.752Z,15.40
2023-05-09T05:35:20.724Z,13.50
2023-05-09T05:36:20.702Z,16.10
2023-05-09T05:37:20.693Z,13.50
2023-05-09T05:38:20.693Z,14.00
2023-05-09T05:39:20.730Z,12.70
2023-05-09T05:40:20.726Z,13.30
2023-05-09T05:41:20.630Z,14.70
2023-05-09T05:42:20.627Z,13.50
2023-05-09T05:43:20.610Z,15.90
2023-05-09T05:44:20.598Z,12.50
2023-05-09T05:45:20.587Z,13.40
2023-05-09T05:46:20.676Z,12.30
2023-05-09T05:47:20.550Z,13.20
2023-05-09T05:48:20.555Z,15.40
2023-05-09T05:49:20.536Z,14.20
2023-05-09T05:50:20.515Z,15.10
2023-05-09T05:51:20.516Z,13.50
2023-05-09T05:52:20.491Z,13.70
2023-05-09T05:53:20.488Z,12.60
2023-05-09T05:54:20.488Z,18.20
2023-05-09T05:55:20.461Z,12.70
2023-05-09T05:56:20.455Z,14.40
2023-05-09T05:57:20.439Z,13.40
2023-05-09T05:58:20.405Z,12.80
2023-05-09T05:59:20.435Z,14.30
2023-05-09T06:00:20.385Z,11.90
2023-05-09T06:01:20.374Z,12.90
2023-05-09T06:02:20.384Z,12.80
2023-05-09T06:03:20.459Z,15.30
2023-05-09T06:04:20.429Z,11.30
2023-05-09T06:05:20.336Z,12.80
2023-05-09T06:06:20.313Z,12.20
2023-05-09T06:07:20.305Z,11.30
2023-05-09T06:08:20.287Z,13.70
2023-05-09T06:09:20.280Z,13.10
2023-05-09T06:10:20.260Z,14.10
2023-05-09T06:11:20.231Z,13.50
2023-05-09T06:12:20.245Z,13.50
2023-05-09T06:13:20.235Z,12.90
2023-05-09T06:14:20.196Z,13.00
2023-05-09T06:15:20.182Z,14.50
2023-05-09T06:16:20.676Z,12.90
2023-05-09T06:17:20.181Z,13.10
2023-05-09T06:18:20.140Z,11.90
2023-05-09T06:19:20.209Z,13.40
2023-05-09T06:20:20.111Z,13.50
2023-05-09T06:21:20.118Z,11.40
2023-05-09T06:22:20.115Z,12.20
2023-05-09T06:23:20.069Z,13.80
2023-05-09T06:24:34.433Z,13.60
2023-05-09T06:25:20.048Z,15.70
2023-05-09T06:26:20.037Z,13.50
2023-05-09T06:27:20.029Z,24.40
2023-05-09T06:28:20.033Z,15.10
2023-05-09T06:29:19.999Z,14.10
2023-05-09T06:30:26.257Z,18.50
2023-05-09T06:31:20.089Z,22.20
2023-05-09T06:32:19.956Z,16.90
2023-05-09T06:33:19.988Z,16.50
2023-05-09T06:34:19.938Z,16.40
2023-05-09T06:35:19.906Z,14.50
2023-05-09T06:36:19.904Z,14.70
2023-05-09T06:37:19.878Z,14.00
2023-05-09T06:38:19.871Z,12.10
2023-05-09T06:39:19.848Z,12.30
2023-05-09T06:40:19.857Z,14.40
2023-05-09T06:41:19.833Z,12.10
2023-05-09T06:42:19.932Z,13.30
2023-05-09T06:43:19.805Z,14.60
2023-05-09T06:44:19.781Z,11.90
2023-05-09T06:45:19.986Z,13.60
2023-05-09T06:46:19.819Z,13.70
2023-05-09T06:47:19.747Z,11.50
2023-05-09T06:48:19.763Z,14.60
2023-05-09T06:49:19.723Z,11.80
2023-05-09T06:50:19.719Z,11.80
2023-05-09T06:51:19.693Z,12.70
2023-05-09T06:52:19.677Z,14.00
2023-05-09T06:53:19.668Z,13.70
2023-05-09T06:54:19.672Z,14.10
2023-05-09T06:55:19.665Z,13.10
2023-05-09T06:56:20.129Z,13.00
2023-05-09T06:57:19.606Z,13.50
2023-05-09T06:58:19.600Z,11.50
2023-05-09T06:59:19.582Z,14.40
2023-05-09T07:00:19.585Z,13.00
2023-05-09T07:01:19.562Z,16.30
2023-05-09T07:02:19.561Z,15.10
2023-05-09T07:03:19.521Z,14.10
2023-05-09T07:04:19.512Z,15.30
2023-05-09T07:05:19.546Z,14.90
2023-05-09T07:06:19.526Z,12.70
2023-05-09T07:07:19.482Z,16.00
2023-05-09T07:08:19.488Z,12.60
2023-05-09T07:09:19.446Z,14.40
2023-05-09T07:10:19.468Z,13.60
2023-05-09T07:11:19.427Z,16.00
2023-05-09T07:12:19.418Z,12.70
2023-05-09T07:13:19.451Z,12.60
2023-05-09T07:14:19.388Z,12.20
2023-05-09T07:15:32.504Z,10.80
2023-05-09T07:16:19.399Z,12.40
2023-05-09T07:17:23.515Z,12.50
2023-05-09T07:18:19.344Z,12.20
2023-05-09T07:19:19.310Z,12.00
2023-05-09T07:20:19.322Z,13.20
2023-05-09T07:21:19.292Z,13.70
2023-05-09T07:22:19.363Z,11.30
2023-05-09T07:23:19.275Z,12.00
2023-05-09T07:24:19.278Z,11.80
2023-05-09T07:25:19.233Z,12.40
2023-05-09T07:26:19.214Z,13.50
2023-05-09T07:27:19.227Z,14.40
2023-05-09T07:28:19.196Z,13.00
2023-05-09T07:29:19.182Z,13.30
2023-05-09T07:30:19.193Z,13.60
2023-05-09T07:31:19.160Z,12.80
2023-05-09T07:32:19.139Z,16.70
2023-05-09T07:33:19.118Z,18.70
2023-05-09T07:34:19.143Z,22.10
2023-05-09T07:35:19.082Z,21.10
2023-05-09T07:36:19.101Z,20.10
2023-05-09T07:37:19.061Z,16.20
2023-05-09T07:38:19.050Z,16.20
2023-05-09T07:39:19.041Z,18.50
2023-05-09T07:40:19.209Z,10.90
2023-05-09T07:41:19.017Z,13.10
2023-05-09T07:42:19.035Z,11.50
2023-05-09T07:43:18.984Z,12.30
2023-05-09T07:44:18.976Z,14.40
2023-05-09T07:45:21.222Z,13.00
2023-05-09T07:46:18.966Z,13.80
2023-05-09T07:47:18.935Z,14.30
2023-05-09T07:48:18.910Z,13.50
2023-05-09T07:49:18.904Z,11.10
2023-05-09T07:50:18.967Z,11.30
2023-05-09T07:51:18.899Z,12.10
2023-05-09T07:52:18.863Z,12.20
2023-05-09T07:53:18.844Z,12.00
2023-05-09T07:54:18.856Z,13.60
2023-05-09T07:55:18.845Z,12.70
2023-05-09T07:56:18.821Z,12.20
2023-05-09T07:57:18.808Z,12.90
2023-05-09T07:58:18.825Z,13.30
2023-05-09T07:59:18.790Z,9.90
2023-05-09T08:00:18.753Z,11.10
2023-05-09T08:01:18.748Z,12.10
2023-05-09T08:02:18.771Z,14.40
2023-05-09T08:03:18.868Z,12.20
2023-05-09T08:04:18.720Z,12.60
2023-05-09T08:05:18.699Z,10.90
2023-05-09T08:06:18.702Z,11.00
2023-05-09T08:07:18.663Z,13.80
2023-05-09T08:08:18.666Z,9.90
2023-05-09T08:09:18.646Z,10.50
2023-05-09T08:10:18.631Z,12.20
2023-05-09T08:11:18.640Z,10.70
2023-05-09T08:12:18.643Z,13.30
2023-05-09T08:13:18.700Z,12.40
2023-05-09T08:14:18.572Z,11.00
2023-05-09T08:15:18.551Z,11.70
2023-05-09T08:16:18.620Z,11.80
2023-05-09T08:17:18.535Z,9.50
2023-05-09T08:18:18.518Z,11.20
2023-05-09T08:19:18.509Z,10.30
2023-05-09T08:20:18.517Z,9.90
2023-05-09T08:21:21.492Z,10.10
2023-05-09T08:22:18.475Z,9.50
2023-05-09T08:23:18.476Z,10.90
2023-05-09T08:24:18.458Z,9.40
2023-05-09T08:25:18.426Z,11.30
2023-05-09T08:26:18.428Z,9.60
2023-05-09T08:27:18.419Z,9.90
2023-05-09T08:28:18.397Z,8.90
2023-05-09T08:29:18.370Z,9.20
2023-05-09T08:30:18.369Z,12.00
2023-05-09T08:31:18.417Z,23.40
2023-05-09T08:32:18.345Z,10.10
2023-05-09T08:33:18.319Z,10.10
2023-05-09T08:34:18.350Z,11.60
2023-05-09T08:35:18.314Z,10.00
2023-05-09T08:36:18.288Z,10.90
2023-05-09T08:37:18.294Z,8.60
2023-05-09T08:38:18.267Z,8.30
2023-05-09T08:39:18.254Z,9.40
2023-05-09T08:40:18.251Z,9.90
2023-05-09T08:41:18.221Z,9.60
2023-05-09T08:42:18.226Z,9.20
2023-05-09T08:43:18.239Z,9.50
2023-05-09T08:44:18.203Z,10.30
2023-05-09T08:45:18.169Z,8.90
2023-05-09T08:46:19.224Z,10.30
2023-05-09T08:47:18.314Z,8.30
2023-05-09T08:48:18.189Z,9.00
2023-05-09T08:49:18.153Z,14.00
2023-05-09T08:50:18.389Z,8.60
2023-05-09T08:51:18.096Z,7.10
2023-05-09T08:52:18.096Z,7.90
2023-05-09T08:53:18.077Z,9.30
2023-05-09T08:54:18.066Z,7.30
2023-05-09T08:55:18.085Z,9.10
2023-05-09T08:56:18.034Z,11.60
2023-05-09T08:57:18.056Z,9.70
2023-05-09T08:58:18.024Z,7.40
2023-05-09T08:59:18.016Z,7.90
2023-05-09T09:00:20.215Z,8.50
2023-05-09T09:01:17.996Z,8.90
2023-05-09T09:02:17.956Z,8.30
2023-05-09T09:03:17.974Z,7.70
2023-05-09T09:04:18.114Z,8.10
2023-05-09T09:05:39.562Z,8.30
2023-05-09T09:06:17.953Z,8.80
2023-05-09T09:07:17.894Z,6.50
2023-05-09T09:08:17.897Z,7.90
2023-05-09T09:09:17.878Z,9.10
2023-05-09T09:10:17.849Z,7.10
2023-05-09T09:11:17.829Z,8.50
2023-05-09T09:12:17.839Z,8.90
2023-05-09T09:13:17.903Z,7.70
2023-05-09T09:14:17.808Z,7.80
2023-05-09T09:15:17.801Z,7.40
2023-05-09T09:16:17.797Z,8.50
2023-05-09T09:17:17.794Z,8.10
2023-05-09T09:18:17.743Z,9.10
2023-05-09T09:19:17.792Z,10.00
2023-05-09T09:20:17.777Z,8.60
2023-05-09T09:21:17.709Z,7.10
2023-05-09T09:22:17.709Z,6.10
2023-05-09T09:23:17.672Z,6.60
2023-05-09T09:24:17.672Z,7.80
2023-05-09T09:25:17.654Z,7.40
2023-05-09T09:26:17.640Z,7.20
2023-05-09T09:27:17.637Z,8.30
2023-05-09T09:28:17.637Z,7.90
2023-05-09T09:29:17.602Z,6.90
2023-05-09T09:30:17.592Z,6.30
2023-05-09T09:31:17.637Z,5.80
2023-05-09T09:32:17.658Z,6.00
2023-05-09T09:33:17.572Z,7.50
2023-05-09T09:34:17.545Z,6.50
2023-05-09T09:35:17.535Z,6.70
2023-05-09T09:36:17.503Z,9.00
2023-05-09T09:37:17.502Z,7.10
2023-05-09T09:38:17.520Z,6.30
2023-05-09T09:39:17.504Z,6.30
2023-05-09T09:40:17.624Z,6.70
2023-05-09T09:41:17.450Z,9.60
2023-05-09T09:42:17.428Z,6.80
2023-05-09T09:43:17.443Z,5.70
2023-05-09T09:44:17.409Z,5.90
2023-05-09T09:45:17.401Z,6.90
2023-05-09T09:46:17.431Z,7.30
2023-05-09T09:47:17.380Z,10.90
2023-05-09T09:48:17.394Z,7.70
2023-05-09T09:49:17.484Z,9.10
2023-05-09T09:50:17.626Z,9.10
2023-05-09T09:51:17.317Z,6.50
2023-05-09T09:52:17.330Z,6.70
2023-05-09T09:53:17.309Z,5.70
2023-05-09T09:54:17.300Z,5.70
2023-05-09T09:55:17.274Z,5.70
2023-05-09T09:56:17.265Z,6.90
2023-05-09T09:57:17.281Z,6.60
2023-05-09T09:58:17.242Z,5.20
2023-05-09T09:59:17.222Z,6.20
2023-05-09T10:00:17.369Z,6.70
2023-05-09T10:01:17.199Z,7.30
2023-05-09T10:02:17.188Z,5.70
2023-05-09T10:03:17.256Z,6.10
2023-05-09T10:04:17.182Z,5.40
2023-05-09T10:05:17.152Z,6.50
2023-05-09T10:06:17.156Z,5.00
2023-05-09T10:07:17.115Z,4.60
2023-05-09T10:08:17.104Z,6.00
2023-05-09T10:09:17.105Z,6.20
2023-05-09T10:10:17.409Z,6.70
2023-05-09T10:11:17.073Z,6.30
2023-05-09T10:12:17.039Z,5.50
2023-05-09T10:13:17.090Z,6.90
2023-05-09T10:14:17.078Z,6.30
2023-05-09T10:15:17.014Z,5.80
2023-05-09T10:16:17.130Z,6.20
2023-05-09T10:17:16.997Z,5.30
2023-05-09T10:18:17.086Z,5.30
2023-05-09T10:19:16.950Z,5.20
2023-05-09T10:20:17.132Z,6.20
2023-05-09T10:21:16.928Z,5.40
2023-05-09T10:22:16.927Z,5.50
2023-05-09T10:23:16.898Z,4.80
2023-05-09T10:24:16.917Z,5.60
2023-05-09T10:25:17.096Z,5.40
2023-05-09T10:26:16.854Z,6.60
2023-05-09T10:27:16.841Z,6.70
2023-05-09T10:28:16.832Z,6.90
2023-05-09T10:29:16.832Z,7.20
2023-05-09T10:30:16.812Z,8.60
2023-05-09T10:31:16.826Z,9.50
2023-05-09T10:32:16.792Z,6.80
2023-05-09T10:33:16.799Z,8.30
2023-05-09T10:34:16.748Z,12.30
2023-05-09T10:35:17.047Z,7.00
2023-05-09T10:36:16.745Z,8.60
2023-05-09T10:37:16.740Z,7.40
2023-05-09T10:38:16.733Z,9.80
2023-05-09T10:39:16.700Z,7.90
2023-05-09T10:40:16.681Z,5.70
2023-05-09T10:41:16.661Z,8.00
2023-05-09T10:42:16.642Z,5.20
2023-05-09T10:43:16.634Z,5.30
2023-05-09T10:44:16.644Z,6.70
2023-05-09T10:45:16.883Z,7.30
2023-05-09T10:46:16.659Z,6.70
2023-05-09T10:47:16.635Z,7.10
2023-05-09T10:48:16.564Z,8.00
2023-05-09T10:49:16.555Z,7.90
2023-05-09T10:50:16.571Z,6.90
2023-05-09T10:51:16.539Z,5.30
2023-05-09T10:52:16.525Z,7.80
2023-05-09T10:53:16.501Z,9.80
2023-05-09T10:54:16.535Z,8.80
2023-05-09T10:55:16.768Z,9.20
2023-05-09T10:56:16.502Z,10.00
2023-05-09T10:57:16.458Z,8.30
2023-05-09T10:58:16.442Z,10.10
2023-05-09T10:59:16.417Z,10.00
2023-05-09T11:00:16.460Z,8.20
2023-05-09T11:01:16.441Z,7.40
2023-05-09T11:02:16.393Z,8.30
2023-05-09T11:03:16.438Z,6.20
2023-05-09T11:04:16.377Z,7.60
2023-05-09T11:05:16.492Z,6.40
2023-05-09T11:06:16.937Z,8.80
2023-05-09T11:07:16.330Z,7.20
2023-05-09T11:08:16.322Z,9.30
2023-05-09T11:09:16.295Z,9.70
2023-05-09T11:10:16.307Z,11.90
2023-05-09T11:11:16.273Z,8.00
2023-05-09T11:12:16.253Z,5.30
2023-05-09T11:13:16.257Z,11.60
2023-05-09T11:14:16.248Z,10.30
2023-05-09T11:15:16.387Z,9.10
2023-05-09T11:16:16.245Z,8.00
2023-05-09T11:17:16.216Z,9.70
2023-05-09T11:18:17.157Z,8.80
2023-05-09T11:19:16.302Z,10.70
2023-05-09T11:20:16.236Z,8.40
2023-05-09T11:21:16.205Z,10.20
2023-05-09T11:22:16.167Z,10.40
2023-05-09T11:23:16.140Z,10.00
2023-05-09T11:24:16.104Z,8.40
2023-05-09T11:25:16.360Z,9.30
2023-05-09T11:26:16.087Z,9.30
2023-05-09T11:27:16.211Z,12.40
2023-05-09T11:28:16.050Z,9.90
2023-05-09T11:29:16.086Z,12.20
2023-05-09T11:30:16.153Z,13.30
2023-05-09T11:31:16.041Z,13.00
2023-05-09T11:32:16.106Z,10.30
2023-05-09T11:33:16.004Z,13.30
2023-05-09T11:34:15.971Z,12.40
2023-05-09T11:35:16.423Z,13.70
2023-05-09T11:36:15.996Z,10.60
2023-05-09T11:37:15.945Z,11.80
2023-05-09T11:38:15.916Z,13.40
2023-05-09T11:39:15.971Z,9.90
2023-05-09T11:40:15.946Z,10.20
2023-05-09T11:41:15.962Z,12.20
2023-05-09T11:42:15.905Z,10.30
2023-05-09T11:43:15.903Z,11.20
2023-05-09T11:44:15.840Z,9.10
2023-05-09T11:45:16.053Z,10.00
2023-05-09T11:46:15.882Z,11.30
2023-05-09T11:47:15.797Z,8.80
2023-05-09T11:48:15.792Z,11.40
2023-05-09T11:49:15.784Z,10.60
2023-05-09T11:50:16.008Z,12.30
2023-05-09T11:51:15.924Z,12.50
2023-05-09T11:52:15.808Z,12.40
2023-05-09T11:53:15.822Z,13.20
2023-05-09T11:54:15.753Z,13.10
2023-05-09T11:55:15.811Z,11.00
2023-05-09T11:56:15.689Z,11.80
2023-05-09T11:57:15.729Z,12.70
2023-05-09T11:58:15.650Z,11.40
2023-05-09T11:59:15.658Z,11.70
2023-05-09T12:00:15.670Z,12.30
2023-05-09T12:01:15.650Z,14.50
2023-05-09T12:02:15.689Z,16.30
2023-05-09T12:03:15.749Z,13.70
2023-05-09T12:04:15.609Z,13.00
2023-05-09T12:05:15.753Z,14.40
2023-05-09T12:06:15.578Z,11.60
2023-05-09T12:07:15.569Z,17.20
2023-05-09T12:08:15.534Z,14.00
2023-05-09T12:09:15.536Z,12.40
2023-05-09T12:10:15.731Z,13.90
2023-05-09T12:11:15.561Z,18.00
2023-05-09T12:12:15.476Z,14.50
2023-05-09T12:13:15.493Z,15.90
2023-05-09T12:14:15.461Z,14.70
2023-05-09T12:15:15.620Z,14.10
2023-05-09T12:16:15.456Z,14.50
2023-05-09T12:17:15.477Z,12.20
2023-05-09T12:18:15.430Z,17.30
2023-05-09T12:19:15.395Z,12.60
2023-05-09T12:20:15.463Z,13.70
2023-05-09T12:21:15.389Z,13.90
2023-05-09T12:22:15.381Z,14.90
2023-05-09T12:23:15.342Z,14.30
2023-05-09T12:24:15.333Z,15.00
2023-05-09T12:25:15.526Z,12.50
2023-05-09T12:26:15.298Z,16.00
2023-05-09T12:27:15.302Z,14.90
2023-05-09T12:28:15.274Z,12.10
2023-05-09T12:29:15.251Z,14.90
2023-05-09T12:30:15.316Z,13.30
2023-05-09T12:31:15.319Z,12.90
2023-05-09T12:32:15.236Z,14.50
2023-05-09T12:33:15.238Z,17.20
2023-05-09T12:34:15.216Z,12.70
2023-05-09T12:35:15.378Z,11.20
2023-05-09T12:36:15.185Z,12.70
2023-05-09T12:37:15.169Z,14.00
2023-05-09T12:38:15.185Z,12.70
2023-05-09T12:39:15.149Z,13.90
2023-05-09T12:40:15.244Z,12.50
2023-05-09T12:41:33.394Z,12.70
2023-05-09T12:42:15.130Z,15.00
2023-05-09T12:43:15.078Z,10.80
2023-05-09T12:44:15.088Z,18.80
2023-05-09T12:45:15.266Z,10.00
2023-05-09T12:46:15.103Z,12.50
2023-05-09T12:47:15.069Z,11.90
2023-05-09T12:48:15.018Z,10.30
2023-05-09T12:49:15.063Z,11.40
2023-05-09T12:50:15.028Z,9.40
2023-05-09T12:51:14.975Z,12.30
2023-05-09T12:52:14.977Z,12.40
2023-05-09T12:53:14.976Z,16.90
2023-05-09T12:54:14.964Z,12.00
2023-05-09T12:55:15.102Z,10.70
2023-05-09T12:56:14.922Z,10.10
2023-05-09T12:57:14.904Z,12.60
2023-05-09T12:58:15.377Z,12.00